Terminal Aerodrome Forecast
Issued by NWS Denver/Boulder, CO

Home | Current Version | Previous Version | Text Only | Print | Product List | Glossary On
Versions: 1 2 3 4 5 6 7 8 9 10 11 12 13 14 15 16 17 18 19 20 21 22 23 24 25 26 27 28 29 30 31 32 33 34 35 36 37 38 39 40 41 42 43 44 45 46 47 48 49 50
000
FTUS45 KBOU 150849 AAB
TAFDEN
TAF AMD
KDEN 150849Z 1509/1612 36008KT P6SM SCT010 BKN200
     FM151000 01006KT 5SM BR SCT005 OVC010
      TEMPO 1511/1514 2SM BR OVC004
     FM151700 07006KT P6SM SCT012 BKN025
     FM152000 13010KT P6SM FEW040 SCT110
     FM160200 20011KT P6SM FEW120=

USA.gov is the U.S. government's official web portal to all federal, state and local government web resources and services.